Time;durP1;ratioP1;P1;durP2;ratioP2;P2;SDS_P1;SDS_P2;PMS_P1;PMS_P2;Temp;Humidity;BMP_temperature;BMP_pressure;BME280_temperature;BME280_humidity;BME280_pressure;Samples;Min_cycle;Max_cycle;Signal;HPM_P1;HPM_P2
2021/06/25 00:01:48;;;;;;;9.45;8.52;;;;;;;;;;5115302;27;20559;-86
2021/06/25 00:04:14;;;;;;;9.25;8.43;;;;;;;;;;5114818;27;20384;-85
2021/06/25 00:06:40;;;;;;;8.93;8.02;;;;;;;;;;5114264;27;20405;-86
2021/06/25 00:09:06;;;;;;;8.73;7.85;;;;;;;;;;5115198;27;20870;-86
2021/06/25 00:11:32;;;;;;;9.07;8.25;;;;;;;;;;5114955;27;20362;-86
2021/06/25 00:13:58;;;;;;;10.35;8.45;;;;;;;;;;5115507;27;20365;-88
2021/06/25 00:16:24;;;;;;;8.98;7.78;;;;;;;;;;5115752;27;20431;-87
2021/06/25 00:18:50;;;;;;;8.48;7.78;;;;;;;;;;5115789;27;20377;-88
2021/06/25 00:21:17;;;;;;;8.40;7.63;;;;;;;;;;5115895;27;20354;-87
2021/06/25 00:23:43;;;;;;;9.35;8.55;;;;;;;;;;5115305;27;20896;-86
2021/06/25 00:26:09;;;;;;;9.13;8.27;;;;;;;;;;5115569;27;20365;-86
2021/06/25 00:28:34;;;;;;;9.32;8.00;;;;;;;;;;5115289;27;20439;-86
2021/06/25 00:31:01;;;;;;;9.65;8.77;;;;;;;;;;5115160;27;20761;-84
2021/06/25 00:33:27;;;;;;;10.93;9.48;;;;;;;;;;5115137;27;20452;-85
2021/06/25 00:35:53;;;;;;;10.27;9.27;;;;;;;;;;5115139;27;20953;-85
2021/06/25 00:38:19;;;;;;;9.73;8.70;;;;;;;;;;5114700;27;20464;-84
2021/06/25 00:40:45;;;;;;;9.65;8.65;;;;;;;;;;5115374;27;20373;-85
2021/06/25 00:43:11;;;;;;;10.25;9.10;;;;;;;;;;5114782;27;20388;-85
2021/06/25 00:45:37;;;;;;;9.93;9.02;;;;;;;;;;5115088;27;20388;-85
2021/06/25 00:48:03;;;;;;;9.50;8.57;;;;;;;;;;5114723;27;20394;-87
2021/06/25 00:50:31;;;;;;;9.85;8.88;;;;;;;;;;5114821;27;20413;-86
2021/06/25 00:52:58;;;;;;;8.85;8.02;;;;;;;;;;5114727;27;20885;-86
2021/06/25 00:55:24;;;;;;;8.88;7.97;;;;;;;;;;5114572;27;20442;-86
2021/06/25 00:57:51;;;;;;;9.30;8.40;;;;;;;;;;5114460;27;20390;-86
2021/06/25 01:00:17;;;;;;;9.02;8.23;;;;;;;;;;5114139;27;20859;-87
2021/06/25 01:02:44;;;;;;;9.35;8.45;;;;;;;;;;5114619;27;20365;-86
2021/06/25 01:05:10;;;;;;;9.38;8.50;;;;;;;;;;5114366;27;20368;-86
2021/06/25 01:07:36;;;;;;;9.38;8.27;;;;;;;;;;5114369;27;20456;-86
2021/06/25 01:10:04;;;;;;;9.27;8.38;;;;;;;;;;5114284;27;20447;-86
2021/06/25 01:12:30;;;;;;;10.40;8.70;;;;;;;;;;5114374;27;20458;-86
2021/06/25 01:14:56;;;;;;;8.55;7.75;;;;;;;;;;5114283;27;20361;-86
2021/06/25 01:17:35;;;;;;;8.95;8.25;;;;;;;;;;5114180;27;20957;-87
2021/06/25 01:20:04;;;;;;;9.38;8.48;;;;;;;;;;5114003;27;20376;-87
2021/06/25 01:22:34;;;;;;;9.90;8.90;;;;;;;;;;5114055;27;20357;-86
2021/06/25 01:25:11;;;;;;;9.32;8.43;;;;;;;;;;5113985;27;20878;-86
2021/06/25 01:27:38;;;;;;;9.60;8.80;;;;;;;;;;5113894;27;20376;-86
2021/06/25 01:30:05;;;;;;;10.60;8.45;;;;;;;;;;5114119;27;20410;-86
2021/06/25 01:32:31;;;;;;;9.97;8.97;;;;;;;;;;5113882;27;20414;-86
2021/06/25 01:34:59;;;;;;;9.60;8.70;;;;;;;;;;5113821;27;20384;-85
2021/06/25 01:37:26;;;;;;;13.38;8.80;;;;;;;;;;5113790;27;20472;-86
2021/06/25 01:39:52;;;;;;;9.27;8.43;;;;;;;;;;5113916;27;20373;-86
2021/06/25 01:42:18;;;;;;;9.52;8.57;;;;;;;;;;5113805;27;20376;-86
2021/06/25 01:44:45;;;;;;;9.85;8.93;;;;;;;;;;5113706;27;21118;-86
2021/06/25 01:47:11;;;;;;;9.43;8.52;;;;;;;;;;5113507;27;20408;-86
2021/06/25 01:49:37;;;;;;;9.90;8.80;;;;;;;;;;5113658;27;20397;-86
2021/06/25 01:52:04;;;;;;;9.10;8.20;;;;;;;;;;5113862;27;20372;-86
2021/06/25 01:54:29;;;;;;;10.40;8.30;;;;;;;;;;5113590;27;20727;-86
2021/06/25 01:56:55;;;;;;;9.10;8.30;;;;;;;;;;5113452;27;20373;-86
2021/06/25 01:59:22;;;;;;;9.70;8.67;;;;;;;;;;5113235;27;20372;-85
2021/06/25 02:01:48;;;;;;;9.13;8.32;;;;;;;;;;5113345;27;20379;-86
2021/06/25 02:04:14;;;;;;;9.02;8.23;;;;;;;;;;5113248;27;20385;-86
2021/06/25 02:06:40;;;;;;;8.73;7.95;;;;;;;;;;5113117;27;20445;-86
2021/06/25 02:09:06;;;;;;;9.15;8.43;;;;;;;;;;5113131;27;20369;-86
2021/06/25 02:11:32;;;;;;;9.38;8.57;;;;;;;;;;5112155;27;20377;-86
2021/06/25 02:13:58;;;;;;;9.68;8.77;;;;;;;;;;5113115;27;20389;-87
2021/06/25 02:16:24;;;;;;;9.25;8.35;;;;;;;;;;5112920;27;20377;-86
2021/06/25 02:18:50;;;;;;;9.35;8.60;;;;;;;;;;5112838;27;20380;-87
2021/06/25 02:21:16;;;;;;;9.32;8.52;;;;;;;;;;5113066;27;20361;-87
2021/06/25 02:23:42;;;;;;;10.52;8.95;;;;;;;;;;5112807;27;20499;-86
2021/06/25 02:26:08;;;;;;;8.35;7.65;;;;;;;;;;5112976;27;20798;-86
2021/06/25 02:28:34;;;;;;;9.07;8.18;;;;;;;;;;5112588;27;20373;-86
2021/06/25 02:31:00;;;;;;;9.40;8.50;;;;;;;;;;5112857;27;20376;-87
2021/06/25 02:33:26;;;;;;;9.40;8.50;;;;;;;;;;5112681;27;20878;-86
2021/06/25 02:35:53;;;;;;;9.10;8.40;;;;;;;;;;5112745;27;20923;-86
2021/06/25 02:38:19;;;;;;;9.30;8.32;;;;;;;;;;5112600;27;20380;-87
2021/06/25 02:40:45;;;;;;;9.52;8.65;;;;;;;;;;5112607;27;20365;-87
2021/06/25 02:43:11;;;;;;;9.55;8.55;;;;;;;;;;5112476;27;20385;-87
2021/06/25 02:45:37;;;;;;;8.57;7.88;;;;;;;;;;5112615;27;20373;-86
2021/06/25 02:48:03;;;;;;;9.48;8.50;;;;;;;;;;5112491;27;20727;-87
2021/06/25 02:50:29;;;;;;;10.65;8.43;;;;;;;;;;5112534;28;20762;-87
2021/06/25 02:52:55;;;;;;;9.43;8.63;;;;;;;;;;5112547;28;20398;-87
2021/06/25 02:55:22;;;;;;;9.30;8.40;;;;;;;;;;5112632;28;20585;-87
2021/06/25 02:57:47;;;;;;;9.32;8.43;;;;;;;;;;5112497;28;20704;-87
2021/06/25 03:00:15;;;;;;;9.00;8.23;;;;;;;;;;5112551;28;20892;-87
2021/06/25 03:02:41;;;;;;;8.57;7.88;;;;;;;;;;5112569;28;20365;-86
2021/06/25 03:05:08;;;;;;;9.35;8.38;;;;;;;;;;5112649;28;20369;-87
2021/06/25 03:07:35;;;;;;;9.07;8.18;;;;;;;;;;5112492;28;20438;-85
2021/06/25 03:10:01;;;;;;;9.00;8.20;;;;;;;;;;5112310;28;20502;-87
2021/06/25 03:12:38;;;;;;;9.70;8.70;;;;;;;;;;5112452;27;20357;-88
2021/06/25 03:15:08;;;;;;;9.20;8.40;;;;;;;;;;5112374;28;20373;-87
2021/06/25 03:17:41;;;;;;;8.98;8.07;;;;;;;;;;5112166;28;20374;-87
2021/06/25 03:20:08;;;;;;;8.40;7.60;;;;;;;;;;5112379;28;20429;-86
2021/06/25 03:22:34;;;;;;;9.13;8.32;;;;;;;;;;5114721;27;21311;-86
2021/06/25 03:25:00;;;;;;;11.95;8.40;;;;;;;;;;5116004;27;20403;-86
2021/06/25 03:27:26;;;;;;;8.30;7.60;;;;;;;;;;5116171;27;20361;-86
2021/06/25 03:29:52;;;;;;;8.40;7.70;;;;;;;;;;5116279;27;20452;-86
2021/06/25 03:32:18;;;;;;;8.90;8.10;;;;;;;;;;5116134;27;20361;-87
2021/06/25 03:34:44;;;;;;;8.43;7.63;;;;;;;;;;5116336;27;20400;-87
2021/06/25 03:37:10;;;;;;;9.23;8.43;;;;;;;;;;5116344;27;20369;-87
2021/06/25 03:39:36;;;;;;;9.40;8.40;;;;;;;;;;5116050;27;20496;-87
2021/06/25 03:42:02;;;;;;;8.50;7.70;;;;;;;;;;5116139;27;20412;-86
2021/06/25 03:44:28;;;;;;;8.25;7.55;;;;;;;;;;5115817;27;20929;-87
2021/06/25 03:46:54;;;;;;;8.65;7.85;;;;;;;;;;5115907;27;20507;-87
2021/06/25 03:49:20;;;;;;;8.10;7.30;;;;;;;;;;5115934;27;20368;-87
2021/06/25 03:51:46;;;;;;;8.65;7.75;;;;;;;;;;5115820;27;20380;-87
2021/06/25 03:54:12;;;;;;;8.75;7.95;;;;;;;;;;5115735;27;20380;-87
2021/06/25 03:56:38;;;;;;;9.02;8.23;;;;;;;;;;5115995;27;20371;-87
2021/06/25 03:59:04;;;;;;;8.88;7.97;;;;;;;;;;5116315;27;20882;-87
2021/06/25 04:01:30;;;;;;;9.18;8.18;;;;;;;;;;5115540;27;20402;-87
2021/06/25 04:03:57;;;;;;;9.07;8.18;;;;;;;;;;5115765;27;20380;-86
2021/06/25 04:06:22;;;;;;;8.70;7.85;;;;;;;;;;5115823;27;20400;-87
2021/06/25 04:08:49;;;;;;;7.88;7.18;;;;;;;;;;5115404;27;20399;-87
2021/06/25 04:11:17;;;;;;;11.17;8.13;;;;;;;;;;5115502;27;20368;-87
2021/06/25 04:13:43;;;;;;;8.65;7.80;;;;;;;;;;5115449;27;20372;-87
2021/06/25 04:16:10;;;;;;;7.95;7.22;;;;;;;;;;5115489;27;20373;-87
2021/06/25 04:18:36;;;;;;;8.38;7.57;;;;;;;;;;5115462;27;20393;-87
2021/06/25 04:21:03;;;;;;;8.93;8.02;;;;;;;;;;5115258;27;20365;-87
2021/06/25 04:23:29;;;;;;;9.40;8.50;;;;;;;;;;5115179;27;20381;-87
2021/06/25 04:25:55;;;;;;;9.93;8.65;;;;;;;;;;5115268;27;20407;-86
2021/06/25 04:28:21;;;;;;;8.18;7.47;;;;;;;;;;5115019;27;20373;-87
2021/06/25 04:30:47;;;;;;;9.73;8.60;;;;;;;;;;5115371;27;20472;-87
2021/06/25 04:33:14;;;;;;;8.25;7.45;;;;;;;;;;5114247;27;20357;-87
2021/06/25 04:35:41;;;;;;;9.85;8.90;;;;;;;;;;5114764;27;20417;-87
2021/06/25 04:38:07;;;;;;;9.98;9.00;;;;;;;;;;5114959;27;20377;-87
2021/06/25 04:40:33;;;;;;;10.05;9.05;;;;;;;;;;5115254;27;20377;-87
2021/06/25 04:42:59;;;;;;;10.63;8.40;;;;;;;;;;5114940;27;20369;-86
2021/06/25 04:45:26;;;;;;;9.73;8.82;;;;;;;;;;5114624;27;20362;-87
2021/06/25 04:47:52;;;;;;;9.98;9.10;;;;;;;;;;5114889;27;20466;-85
2021/06/25 04:50:18;;;;;;;11.50;10.40;;;;;;;;;;5114652;27;20369;-86
2021/06/25 04:52:44;;;;;;;12.15;10.45;;;;;;;;;;5114913;27;20418;-87
2021/06/25 04:55:10;;;;;;;13.05;11.65;;;;;;;;;;5115013;27;20361;-86
2021/06/25 04:57:39;;;;;;;12.57;11.27;;;;;;;;;;5114804;27;20361;-87
2021/06/25 05:00:07;;;;;;;13.80;12.35;;;;;;;;;;5114617;27;20467;-84
2021/06/25 05:02:33;;;;;;;14.32;12.35;;;;;;;;;;5114456;27;20384;-87
2021/06/25 05:04:59;;;;;;;13.95;12.20;;;;;;;;;;5114280;27;20870;-87
2021/06/25 05:07:25;;;;;;;15.10;12.50;;;;;;;;;;5114564;27;20452;-86
2021/06/25 05:09:51;;;;;;;14.82;13.32;;;;;;;;;;5114445;27;20365;-87
2021/06/25 05:12:16;;;;;;;17.30;14.50;;;;;;;;;;5114439;27;20920;-87
2021/06/25 05:14:42;;;;;;;16.98;13.25;;;;;;;;;;5114434;27;20422;-87
2021/06/25 05:17:08;;;;;;;15.20;13.33;;;;;;;;;;5114252;27;20851;-86
2021/06/25 05:19:34;;;;;;;17.25;13.35;;;;;;;;;;5114057;27;20389;-87
2021/06/25 05:22:01;;;;;;;16.60;13.57;;;;;;;;;;5114874;27;20373;-87
2021/06/25 05:24:27;;;;;;;16.48;14.05;;;;;;;;;;5114762;27;20381;-85
2021/06/25 05:26:52;;;;;;;15.85;13.82;;;;;;;;;;5114979;27;20422;-85
2021/06/25 05:29:19;;;;;;;15.38;13.68;;;;;;;;;;5114112;27;20692;-87
2021/06/25 05:31:44;;;;;;;16.10;13.88;;;;;;;;;;5113929;27;20383;-86
2021/06/25 05:34:10;;;;;;;16.07;13.00;;;;;;;;;;5113788;27;20365;-86
2021/06/25 05:36:37;;;;;;;16.35;13.05;;;;;;;;;;5113770;27;20413;-87
2021/06/25 05:39:03;;;;;;;14.63;13.13;;;;;;;;;;5113954;27;20373;-84
2021/06/25 05:41:29;;;;;;;16.45;13.40;;;;;;;;;;5113955;27;20360;-89
2021/06/25 05:43:55;;;;;;;14.85;13.30;;;;;;;;;;5114473;27;20468;-85
2021/06/25 05:46:21;;;;;;;15.40;12.80;;;;;;;;;;5113513;27;20365;-84
2021/06/25 05:48:47;;;;;;;17.85;13.43;;;;;;;;;;5113458;27;20361;-86
2021/06/25 05:51:13;;;;;;;15.77;12.98;;;;;;;;;;5113411;27;20353;-87
2021/06/25 05:53:39;;;;;;;13.65;12.02;;;;;;;;;;5113538;27;20365;-88
2021/06/25 05:56:08;;;;;;;13.90;12.40;;;;;;;;;;5113679;27;20862;-88
2021/06/25 05:58:34;;;;;;;14.35;12.23;;;;;;;;;;5113355;27;20414;-89
2021/06/25 06:01:00;;;;;;;13.63;12.07;;;;;;;;;;5113417;27;20743;-87
2021/06/25 06:03:26;;;;;;;14.38;12.90;;;;;;;;;;5113064;27;20913;-86
2021/06/25 06:05:52;;;;;;;12.77;11.55;;;;;;;;;;5113375;27;20385;-86
2021/06/25 06:08:18;;;;;;;13.63;11.38;;;;;;;;;;5113153;27;20866;-86
2021/06/25 06:10:44;;;;;;;13.45;12.15;;;;;;;;;;5113428;27;20407;-88
2021/06/25 06:13:10;;;;;;;12.38;11.18;;;;;;;;;;5113129;27;20421;-87
2021/06/25 06:15:37;;;;;;;13.10;11.83;;;;;;;;;;5113029;27;20439;-88
2021/06/25 06:18:04;;;;;;;15.48;12.23;;;;;;;;;;5113183;27;20381;-88
2021/06/25 06:20:30;;;;;;;14.15;11.95;;;;;;;;;;5113270;27;20377;-87
2021/06/25 06:31:23;;;;;;;12.20;9.82;;;;;;;;;;5131720;27;20896;-87
2021/06/25 06:33:57;;;;;;;13.90;9.57;;;;;;;;;;5113622;27;20369;-89
2021/06/25 06:36:33;;;;;;;12.88;9.45;;;;;;;;;;5113418;27;20406;-88
2021/06/25 06:39:00;;;;;;;11.73;9.40;;;;;;;;;;5113686;27;20863;-87
2021/06/25 06:41:26;;;;;;;11.68;8.93;;;;;;;;;;5113287;27;20758;-91
2021/06/25 06:43:52;;;;;;;10.27;9.18;;;;;;;;;;5113023;27;21019;-90
2021/06/25 06:46:19;;;;;;;10.75;8.73;;;;;;;;;;5112841;28;20422;-90
2021/06/25 06:48:46;;;;;;;9.45;8.30;;;;;;;;;;5113372;27;20376;-87
2021/06/25 06:51:12;;;;;;;12.95;8.18;;;;;;;;;;5114369;27;20456;-90
2021/06/25 06:53:43;;;;;;;11.52;7.25;;;;;;;;;;5113681;28;20373;-89
2021/06/25 06:56:10;;;;;;;9.23;7.78;;;;;;;;;;5113188;28;20376;-88
2021/06/25 06:58:36;;;;;;;9.43;7.68;;;;;;;;;;5114154;28;20624;-89
2021/06/25 07:01:02;;;;;;;9.52;7.15;;;;;;;;;;5113524;28;20453;-90
2021/06/25 07:03:28;;;;;;;11.45;9.02;;;;;;;;;;5112956;28;20883;-89
2021/06/25 07:05:55;;;;;;;11.38;8.07;;;;;;;;;;5113378;27;20365;-90
2021/06/25 07:08:21;;;;;;;9.60;7.20;;;;;;;;;;5113779;28;20371;-89
2021/06/25 07:10:47;;;;;;;8.45;7.20;;;;;;;;;;5113889;28;20384;-87
2021/06/25 07:13:13;;;;;;;9.82;8.15;;;;;;;;;;5112939;28;20918;-90
2021/06/25 07:15:39;;;;;;;9.82;7.68;;;;;;;;;;5112614;28;20452;-88
2021/06/25 07:18:10;;;;;;;10.63;7.30;;;;;;;;;;5113939;28;20358;-90
2021/06/25 07:20:36;;;;;;;8.30;7.10;;;;;;;;;;5114097;28;20372;-91
2021/06/25 07:23:03;;;;;;;8.80;7.90;;;;;;;;;;5113675;28;20376;-89
2021/06/25 07:25:29;;;;;;;9.77;7.35;;;;;;;;;;5113938;28;20734;-88
2021/06/25 07:27:55;;;;;;;11.67;7.17;;;;;;;;;;5112852;28;20727;-90
2021/06/25 07:30:21;;;;;;;10.15;7.10;;;;;;;;;;5112987;28;20430;-88
2021/06/25 07:32:50;;;;;;;9.60;7.88;;;;;;;;;;5113750;27;20369;-88
2021/06/25 07:35:16;;;;;;;8.52;7.60;;;;;;;;;;5113129;28;20926;-88
2021/06/25 07:37:42;;;;;;;8.80;7.65;;;;;;;;;;5115027;28;20444;-87
2021/06/25 07:40:10;;;;;;;10.68;8.82;;;;;;;;;;5114303;28;20444;-85
2021/06/25 07:42:39;;;;;;;9.30;8.02;;;;;;;;;;5115714;28;20875;-89
2021/06/25 07:45:09;;;;;;;10.93;9.05;;;;;;;;;;5116317;28;20400;-89
2021/06/25 07:47:36;;;;;;;11.45;8.90;;;;;;;;;;5114048;27;20444;-85
2021/06/25 07:50:03;;;;;;;12.32;8.95;;;;;;;;;;5115417;28;20425;-89
2021/06/25 07:52:30;;;;;;;10.52;9.20;;;;;;;;;;5113847;28;20366;-89
2021/06/25 07:54:56;;;;;;;10.07;9.00;;;;;;;;;;5113165;28;20389;-86
2021/06/25 07:57:22;;;;;;;12.03;9.97;;;;;;;;;;5111376;28;20918;-88
2021/06/25 07:59:48;;;;;;;11.07;8.35;;;;;;;;;;5104668;27;20369;-88
2021/06/25 08:02:16;;;;;;;10.38;8.05;;;;;;;;;;5120759;28;20375;-86
2021/06/25 08:04:48;;;;;;;9.40;8.40;;;;;;;;;;5102106;28;20392;-90
2021/06/25 08:07:15;;;;;;;11.48;9.00;;;;;;;;;;5108254;28;20460;-87
2021/06/25 08:09:41;;;;;;;10.32;8.95;;;;;;;;;;5115844;27;20761;-87
2021/06/25 08:12:09;;;;;;;9.23;8.07;;;;;;;;;;5119599;27;20373;-89
2021/06/25 08:14:35;;;;;;;10.60;7.73;;;;;;;;;;5119100;27;20854;-89
2021/06/25 08:17:01;;;;;;;11.32;8.75;;;;;;;;;;5119685;27;20873;-88
2021/06/25 08:19:27;;;;;;;9.50;8.60;;;;;;;;;;5120388;27;20376;-85
2021/06/25 08:22:00;;;;;;;10.38;9.27;;;;;;;;;;5119967;27;20404;-88
2021/06/25 08:24:26;;;;;;;9.05;7.40;;;;;;;;;;5121035;27;20958;-87
2021/06/25 08:26:52;;;;;;;9.55;7.70;;;;;;;;;;5118081;27;20831;-87
2021/06/25 08:29:19;;;;;;;8.50;7.60;;;;;;;;;;5121365;27;20369;-88
2021/06/25 08:31:45;;;;;;;9.38;7.47;;;;;;;;;;5118043;27;20489;-87
2021/06/25 08:34:12;;;;;;;12.52;8.32;;;;;;;;;;5122456;27;20380;-87
2021/06/25 08:36:39;;;;;;;14.52;8.65;;;;;;;;;;5136548;27;20373;-89
2021/06/25 08:39:05;;;;;;;12.77;8.45;;;;;;;;;;5119472;27;20383;-90
2021/06/25 08:41:36;;;;;;;10.23;7.70;;;;;;;;;;5121832;27;20373;-89
2021/06/25 08:44:02;;;;;;;10.43;8.18;;;;;;;;;;5137552;27;20415;-89
2021/06/25 08:46:30;;;;;;;10.38;9.00;;;;;;;;;;5139717;27;20922;-86
2021/06/25 08:48:58;;;;;;;11.33;9.23;;;;;;;;;;5133741;27;20458;-90
2021/06/25 08:51:25;;;;;;;11.35;8.15;;;;;;;;;;5117944;27;20387;-88
2021/06/25 08:53:58;;;;;;;10.65;8.23;;;;;;;;;;5140919;27;20807;-90
2021/06/25 08:56:25;;;;;;;8.82;7.05;;;;;;;;;;5139653;27;20389;-89
2021/06/25 08:58:53;;;;;;;9.20;7.00;;;;;;;;;;5140127;27;20974;-86
2021/06/25 09:01:19;;;;;;;9.07;6.50;;;;;;;;;;5138820;27;20369;-89
2021/06/25 09:03:51;;;;;;;8.38;6.00;;;;;;;;;;5138147;27;20385;-87
2021/06/25 09:06:18;;;;;;;6.35;5.65;;;;;;;;;;5114879;27;20432;-89
2021/06/25 09:08:45;;;;;;;8.97;5.53;;;;;;;;;;5135266;27;20449;-89
2021/06/25 09:11:20;;;;;;;7.50;5.65;;;;;;;;;;5119152;27;20364;-88
2021/06/25 09:13:46;;;;;;;6.38;5.00;;;;;;;;;;5136911;27;20378;-90
2021/06/25 09:16:23;;;;;;;6.43;4.47;;;;;;;;;;5136497;27;20401;-87
2021/06/25 09:19:09;;;;;;;5.65;4.18;;;;;;;;;;5138458;27;20389;-90
2021/06/25 09:21:36;;;;;;;7.78;5.55;;;;;;;;;;5135504;27;20450;-91
2021/06/25 09:24:22;;;;;;;6.65;5.50;;;;;;;;;;5132912;27;20382;-91
2021/06/25 09:26:57;;;;;;;8.77;5.18;;;;;;;;;;5133047;27;20382;-89
2021/06/25 09:29:34;;;;;;;5.70;5.10;;;;;;;;;;5130336;27;20744;-88
2021/06/25 09:32:00;;;;;;;6.07;4.60;;;;;;;;;;5131175;27;20374;-89
2021/06/25 09:34:42;;;;;;;5.67;4.43;;;;;;;;;;5138529;27;20367;-89
2021/06/25 09:37:13;;;;;;;6.13;4.37;;;;;;;;;;5130563;27;20402;-88
2021/06/25 09:39:43;;;;;;;6.32;4.30;;;;;;;;;;5132834;27;20451;-87
2021/06/25 09:42:22;;;;;;;5.25;3.80;;;;;;;;;;5152749;27;20447;-87
2021/06/25 09:44:59;;;;;;;6.28;4.82;;;;;;;;;;5128897;27;20388;-87
2021/06/25 09:47:39;;;;;;;8.00;5.47;;;;;;;;;;5135267;27;20427;-89
2021/06/25 09:50:06;;;;;;;6.72;4.82;;;;;;;;;;5129481;27;20402;-87
2021/06/25 09:52:56;;;;;;;5.47;4.30;;;;;;;;;;5124063;27;20442;-92
2021/06/25 09:55:55;;;;;;;9.95;5.30;;;;;;;;;;5122546;27;20365;-88
2021/06/25 09:58:43;;;;;;;6.40;5.28;;;;;;;;;;5059990;28;20371;-89
2021/06/25 10:01:26;;;;;;;6.00;5.40;;;;;;;;;;5128988;27;20364;-90
2021/06/25 10:03:52;;;;;;;6.68;5.57;;;;;;;;;;5140345;27;20389;-89
2021/06/25 10:06:23;;;;;;;8.45;6.00;;;;;;;;;;5135598;27;20801;-86
2021/06/25 10:08:50;;;;;;;6.05;4.50;;;;;;;;;;5135216;27;20390;-87
2021/06/25 10:11:18;;;;;;;6.80;5.18;;;;;;;;;;5136698;27;20568;-86
2021/06/25 10:13:44;;;;;;;8.85;5.05;;;;;;;;;;5138755;27;20438;-89
2021/06/25 10:16:11;;;;;;;5.93;4.90;;;;;;;;;;5139689;27;20357;-86
2021/06/25 10:18:40;;;;;;;6.43;5.10;;;;;;;;;;5132331;27;20377;-86
2021/06/25 10:21:16;;;;;;;6.57;4.38;;;;;;;;;;5137745;27;20410;-87
2021/06/25 10:23:52;;;;;;;4.78;4.25;;;;;;;;;;5136365;27;20385;-88
2021/06/25 10:26:22;;;;;;;5.30;3.75;;;;;;;;;;5129820;27;20369;-87
2021/06/25 10:28:49;;;;;;;6.40;3.90;;;;;;;;;;5137433;27;20727;-87
2021/06/25 10:31:16;;;;;;;5.88;3.97;;;;;;;;;;5134313;27;20916;-87
2021/06/25 10:33:44;;;;;;;6.53;3.80;;;;;;;;;;5123560;27;20372;-90
2021/06/25 10:36:18;;;;;;;8.77;4.43;;;;;;;;;;5129891;27;20385;-89
2021/06/25 10:38:46;;;;;;;9.23;4.45;;;;;;;;;;5129426;27;20414;-88
2021/06/25 10:41:17;;;;;;;10.52;4.63;;;;;;;;;;5116796;27;20920;-88
2021/06/25 10:43:45;;;;;;;5.40;3.70;;;;;;;;;;5135566;27;20418;-89
2021/06/25 10:46:32;;;;;;;6.15;3.97;;;;;;;;;;5134095;27;20729;-87
2021/06/25 10:49:09;;;;;;;5.65;4.05;;;;;;;;;;5136592;27;20423;-88
2021/06/25 10:51:36;;;;;;;8.20;4.13;;;;;;;;;;5129081;27;20460;-86
2021/06/25 10:54:09;;;;;;;5.85;5.15;;;;;;;;;;5125833;27;20373;-89
2021/06/25 10:56:38;;;;;;;5.50;4.30;;;;;;;;;;5120129;28;20405;-90
2021/06/25 10:59:19;;;;;;;10.27;4.50;;;;;;;;;;5127238;28;20376;-88
2021/06/25 11:01:48;;;;;;;8.63;4.60;;;;;;;;;;5127134;28;20369;-88
2021/06/25 11:04:35;;;;;;;4.93;4.43;;;;;;;;;;5131120;28;20381;-89
2021/06/25 11:07:10;;;;;;;5.75;4.47;;;;;;;;;;5132098;28;20357;-87
2021/06/25 11:09:52;;;;;;;7.85;4.72;;;;;;;;;;5134638;28;20369;-87
2021/06/25 11:12:20;;;;;;;7.57;4.60;;;;;;;;;;5132194;28;20869;-89
2021/06/25 11:14:50;;;;;;;4.85;4.15;;;;;;;;;;5119557;27;20446;-88
2021/06/25 11:32:36;;;;;;;5.50;4.63;;;;;;;;;;5125651;27;20340;-90
2021/06/25 11:35:22;;;;;;;6.37;5.37;;;;;;;;;;5116833;27;20405;-90
2021/06/25 11:38:00;;;;;;;5.07;4.57;;;;;;;;;;5106893;28;20446;-90
2021/06/25 11:40:46;;;;;;;7.73;4.63;;;;;;;;;;5105852;27;20896;-89
2021/06/25 11:43:16;;;;;;;7.40;4.90;;;;;;;;;;5110510;27;20862;-88
2021/06/25 11:45:48;;;;;;;6.80;4.67;;;;;;;;;;5113772;27;20361;-90
2021/06/25 11:48:15;;;;;;;5.50;4.30;;;;;;;;;;5120381;27;20374;-87
2021/06/25 11:50:41;;;;;;;5.18;4.45;;;;;;;;;;5113541;27;20481;-84
2021/06/25 11:53:09;;;;;;;5.57;4.65;;;;;;;;;;5111942;27;20365;-90
2021/06/25 11:55:39;;;;;;;4.70;4.27;;;;;;;;;;5110324;27;20416;-88
2021/06/25 11:58:18;;;;;;;7.40;4.40;;;;;;;;;;5108436;27;20395;-87
2021/06/25 12:00:47;;;;;;;6.40;4.40;;;;;;;;;;5100624;27;20368;-88
2021/06/25 12:03:17;;;;;;;5.18;4.38;;;;;;;;;;5114416;27;20358;-89
2021/06/25 12:05:47;;;;;;;4.82;4.32;;;;;;;;;;5111077;27;20373;-88
2021/06/25 12:08:19;;;;;;;4.70;4.22;;;;;;;;;;5115072;27;20387;-90
2021/06/25 12:11:07;;;;;;;;;;;;;;;;;;;;;
2021/06/25 12:13:37;;;;;;;4.97;4.00;;;;;;;;;;5133828;27;20364;-89
2021/06/25 12:16:03;;;;;;;5.65;4.47;;;;;;;;;;5124676;27;20469;-88
2021/06/25 12:18:32;;;;;;;4.65;3.95;;;;;;;;;;5142182;27;20369;-91
2021/06/25 12:21:06;;;;;;;4.45;4.00;;;;;;;;;;5133982;27;20364;-87
2021/06/25 12:23:40;;;;;;;5.33;3.80;;;;;;;;;;5137847;27;20400;-88
2021/06/25 12:26:12;;;;;;;6.10;3.80;;;;;;;;;;5127930;27;20361;-89
2021/06/25 12:28:57;;;;;;;6.28;3.75;;;;;;;;;;5129764;27;20494;-87
2021/06/25 12:31:50;;;;;;;4.90;4.10;;;;;;;;;;5126099;27;20368;-88
2021/06/25 12:34:20;;;;;;;4.50;3.40;;;;;;;;;;5131494;27;20361;-88
2021/06/25 12:37:01;;;;;;;4.07;3.40;;;;;;;;;;5130661;27;20365;-88
2021/06/25 12:39:30;;;;;;;7.47;4.38;;;;;;;;;;5129182;27;20376;-84
2021/06/25 12:42:05;;;;;;;4.78;3.83;;;;;;;;;;5124412;27;20373;-90
2021/06/25 12:44:32;;;;;;;4.28;3.88;;;;;;;;;;5134534;27;20397;-89
2021/06/25 12:47:17;;;;;;;6.40;3.75;;;;;;;;;;5135294;27;20380;-88
2021/06/25 12:49:43;;;;;;;5.25;3.53;;;;;;;;;;5130988;27;20364;-86
2021/06/25 12:52:40;;;;;;;4.97;3.70;;;;;;;;;;5141792;27;20435;-89
2021/06/25 12:55:10;;;;;;;5.47;3.97;;;;;;;;;;5105826;28;20500;-87
2021/06/25 12:57:36;;;;;;;4.93;3.63;;;;;;;;;;5101304;27;20432;-87
2021/06/25 13:00:03;;;;;;;6.18;3.70;;;;;;;;;;5118908;27;20387;-85
2021/06/25 13:02:29;;;;;;;4.93;4.03;;;;;;;;;;5117907;27;20380;-86
2021/06/25 13:04:55;;;;;;;6.80;4.33;;;;;;;;;;5121781;27;20387;-87
2021/06/25 13:07:22;;;;;;;5.75;4.15;;;;;;;;;;5139893;27;20370;-88
2021/06/25 13:09:48;;;;;;;7.03;4.57;;;;;;;;;;5142599;27;20388;-87
2021/06/25 13:12:19;;;;;;;5.30;4.10;;;;;;;;;;5141143;27;20378;-85
2021/06/25 13:14:46;;;;;;;6.15;3.90;;;;;;;;;;5128414;27;20560;-89
2021/06/25 13:17:13;;;;;;;8.27;3.95;;;;;;;;;;5100757;27;20433;-85
2021/06/25 13:19:59;;;;;;;4.55;3.80;;;;;;;;;;5122984;27;20497;-86
2021/06/25 13:22:32;;;;;;;4.40;3.67;;;;;;;;;;5117299;27;20361;-87
2021/06/25 13:25:06;;;;;;;4.50;3.83;;;;;;;;;;5115025;27;20413;-89
2021/06/25 13:27:36;;;;;;;4.55;4.05;;;;;;;;;;5126541;27;20357;-86
2021/06/25 13:30:13;;;;;;;4.30;3.70;;;;;;;;;;5119352;27;20404;-89
2021/06/25 13:32:53;;;;;;;4.82;3.67;;;;;;;;;;5119190;27;20369;-90
2021/06/25 13:35:20;;;;;;;5.43;3.95;;;;;;;;;;5117484;27;20381;-87
2021/06/25 13:37:57;;;;;;;4.20;3.80;;;;;;;;;;5119194;27;20372;-88
2021/06/25 13:40:28;;;;;;;5.40;4.03;;;;;;;;;;5120726;27;20448;-87
2021/06/25 13:43:17;;;;;;;8.38;3.95;;;;;;;;;;5119005;27;20445;-86
2021/06/25 13:46:07;;;;;;;5.38;4.05;;;;;;;;;;5114989;28;20435;-89
2021/06/25 13:48:34;;;;;;;4.13;3.67;;;;;;;;;;5106313;27;20537;-89
2021/06/25 13:51:08;;;;;;;4.40;3.63;;;;;;;;;;5136719;27;20361;-90
2021/06/25 13:53:36;;;;;;;4.95;3.80;;;;;;;;;;5130547;27;20413;-88
2021/06/25 13:56:12;;;;;;;4.30;3.80;;;;;;;;;;5127090;27;20369;-89
2021/06/25 13:58:58;;;;;;;4.68;4.00;;;;;;;;;;5118184;27;20441;-88
2021/06/25 14:01:25;;;;;;;5.38;3.70;;;;;;;;;;5119370;27;20460;-87
2021/06/25 14:03:56;;;;;;;4.15;3.70;;;;;;;;;;5137720;27;20428;-88
2021/06/25 14:06:28;;;;;;;4.22;3.83;;;;;;;;;;5121358;27;20432;-87
2021/06/25 14:08:54;;;;;;;4.27;3.80;;;;;;;;;;5121085;27;20371;-88
2021/06/25 14:11:22;;;;;;;4.93;3.97;;;;;;;;;;5121836;27;20389;-87
2021/06/25 14:13:51;;;;;;;5.25;3.78;;;;;;;;;;5117075;27;20890;-91
2021/06/25 14:16:28;;;;;;;5.57;4.00;;;;;;;;;;5111869;27;20414;-89
2021/06/25 14:18:55;;;;;;;4.00;3.58;;;;;;;;;;5113321;27;20931;-90
2021/06/25 14:21:35;;;;;;;6.53;4.30;;;;;;;;;;5115966;27;20363;-88
2021/06/25 14:24:05;;;;;;;4.03;3.63;;;;;;;;;;5134404;27;20491;-87
2021/06/25 14:26:38;;;;;;;5.50;3.97;;;;;;;;;;5129090;27;20359;-86
2021/06/25 14:29:05;;;;;;;5.20;3.97;;;;;;;;;;5118192;27;20357;-86
2021/06/25 14:31:37;;;;;;;6.63;3.90;;;;;;;;;;5127692;27;20361;-89
2021/06/25 14:34:10;;;;;;;5.88;3.70;;;;;;;;;;5129130;27;20446;-88
2021/06/25 14:36:39;;;;;;;4.55;4.03;;;;;;;;;;5126357;27;20395;-89
2021/06/25 14:39:06;;;;;;;4.22;3.80;;;;;;;;;;5114439;27;20371;-88
2021/06/25 14:41:32;;;;;;;4.32;3.83;;;;;;;;;;5106575;27;20481;-88
2021/06/25 14:43:58;;;;;;;4.50;4.05;;;;;;;;;;5107252;27;20393;-86
2021/06/25 14:46:25;;;;;;;4.72;3.63;;;;;;;;;;5108839;27;20373;-87
2021/06/25 14:48:51;;;;;;;6.43;3.97;;;;;;;;;;5102196;27;20393;-86
2021/06/25 14:51:18;;;;;;;5.80;3.70;;;;;;;;;;5101152;27;21178;-90
2021/06/25 14:53:46;;;;;;;7.85;4.20;;;;;;;;;;5102882;27;20735;-87
2021/06/25 14:56:13;;;;;;;4.88;3.92;;;;;;;;;;5099760;27;20865;-87
2021/06/25 14:58:39;;;;;;;5.05;4.15;;;;;;;;;;5102906;27;20396;-86
2021/06/25 15:01:05;;;;;;;5.32;3.90;;;;;;;;;;5114093;28;20900;-85
2021/06/25 15:03:39;;;;;;;5.75;4.00;;;;;;;;;;5107158;28;20425;-88
2021/06/25 15:06:05;;;;;;;5.55;3.75;;;;;;;;;;5087409;28;21086;-86
2021/06/25 15:08:35;;;;;;;6.85;4.10;;;;;;;;;;5112059;27;20432;-87
2021/06/25 15:32:54;;;;;;;5.00;4.30;;;;;;;;;;5133308;27;20861;-87
2021/06/25 15:48:06;;;;;;;7.53;3.95;;;;;;;;;;5051128;28;20573;-87